Time;durP1;ratioP1;P1;durP2;ratioP2;P2;SDS_P1;SDS_P2;PMS_P1;PMS_P2;Temp;Humidity;BMP_temperature;BMP_pressure;BME280_temperature;BME280_humidity;BME280_pressure;Samples;Min_cycle;Max_cycle;Signal;HPM_P1;HPM_P2
2023/05/04 00:00:18;;;;;;;7.43;3.92;;;;;;;5.93;100.00;101574.56;6241786;28;20040;-96
2023/05/04 00:03:20;;;;;;;5.18;3.92;;;;;;;5.92;100.00;101572.09;6258499;28;20419;-96
2023/05/04 00:06:22;;;;;;;4.22;3.67;;;;;;;5.92;100.00;101572.09;6259428;28;20403;-96
2023/05/04 00:09:25;;;;;;;9.65;4.00;;;;;;;5.88;100.00;101562.81;6258179;28;20106;-96
2023/05/04 00:12:27;;;;;;;8.40;3.75;;;;;;;5.89;100.00;101561.91;6257995;28;20124;-96
2023/05/04 00:15:29;;;;;;;9.13;3.83;;;;;;;5.89;100.00;101569.63;6258030;28;20412;-96
2023/05/04 00:18:31;;;;;;;7.95;3.90;;;;;;;5.88;100.00;101567.97;6259784;28;20037;-96
2023/05/04 00:21:33;;;;;;;9.30;5.97;;;;;;;5.83;100.00;101563.84;6264041;28;20414;-96
2023/05/04 00:24:35;;;;;;;6.50;3.88;;;;;;;5.81;100.00;101560.53;6258460;28;20049;-96
2023/05/04 00:27:37;;;;;;;6.15;3.85;;;;;;;5.79;100.00;101558.91;6256931;28;20052;-96
2023/05/04 00:30:39;;;;;;;8.23;4.10;;;;;;;5.82;100.00;101553.66;6242911;28;20154;-96
2023/05/04 00:33:41;;;;;;;5.28;3.67;;;;;;;5.79;100.00;101546.91;6254779;28;20068;-96
2023/05/04 00:36:43;;;;;;;6.95;4.28;;;;;;;5.77;100.00;101546.13;6241283;28;20060;-96
2023/05/04 00:39:47;;;;;;;7.15;4.03;;;;;;;5.73;100.00;101546.31;6258955;28;20499;-96
2023/05/04 00:42:49;;;;;;;7.07;3.88;;;;;;;5.67;100.00;101544.03;6252106;28;20494;-96
2023/05/04 00:45:51;;;;;;;7.10;4.18;;;;;;;5.63;100.00;101537.34;6259368;28;20052;-96
2023/05/04 00:48:53;;;;;;;5.68;3.80;;;;;;;5.63;100.00;101540.72;6250899;28;20457;-96
2023/05/04 00:51:56;;;;;;;6.20;4.10;;;;;;;5.58;100.00;101527.25;6250093;28;20435;-96
2023/05/04 00:55:00;;;;;;;6.15;4.57;;;;;;;5.57;100.00;101530.72;6260183;28;20041;-96
2023/05/04 00:58:02;;;;;;;7.72;4.13;;;;;;;5.61;100.00;101527.97;6259098;28;20402;-96
2023/05/04 01:01:04;;;;;;;7.05;4.40;;;;;;;5.61;100.00;101533.13;6258125;28;20330;-96
2023/05/04 01:04:06;;;;;;;7.43;4.35;;;;;;;5.60;100.00;101526.28;6255722;28;20419;-96
2023/05/04 01:07:15;;;;;;;7.65;4.57;;;;;;;5.59;100.00;101523.81;6258407;28;20037;-96
2023/05/04 01:10:24;;;;;;;8.18;4.40;;;;;;;5.58;100.00;101527.25;6253230;28;20041;-96
2023/05/04 01:13:27;;;;;;;8.93;4.15;;;;;;;5.57;100.00;101525.59;6262379;28;20049;-96
2023/05/04 01:16:28;;;;;;;8.57;4.35;;;;;;;5.53;100.00;101531.75;6262537;28;20037;-96
2023/05/04 01:19:30;;;;;;;8.05;4.53;;;;;;;5.54;100.00;101526.56;6260815;28;20508;-96
2023/05/04 01:22:32;;;;;;;6.80;4.18;;;;;;;5.50;100.00;101522.44;6262080;28;20049;-96
2023/05/04 01:26:01;;;;;;;8.70;4.03;;;;;;;5.49;100.00;101530.19;6278456;28;20179;-96
2023/05/04 01:29:22;;;;;;;6.10;3.90;;;;;;;5.44;100.00;101520.13;6265931;28;20045;-96
2023/05/04 01:32:27;;;;;;;6.65;4.80;;;;;;;5.41;100.00;101522.81;6252023;28;20631;-96
2023/05/04 01:35:31;;;;;;;9.18;4.75;;;;;;;5.41;100.00;101517.69;6249888;28;20099;-96
2023/05/04 01:38:33;;;;;;;8.15;5.20;;;;;;;5.37;100.00;101524.69;6258556;28;20381;-96
2023/05/04 01:41:35;;;;;;;7.40;4.82;;;;;;;5.37;100.00;101523.84;6259368;28;20049;-96
2023/05/04 01:44:37;;;;;;;9.18;4.88;;;;;;;5.35;100.00;101528.22;6263597;28;20122;-96
2023/05/04 01:47:40;;;;;;;6.57;4.57;;;;;;;5.36;100.00;101528.13;6259205;28;20499;-96
2023/05/04 01:50:42;;;;;;;8.80;4.57;;;;;;;5.34;100.00;101524.81;6252218;28;20042;-96
2023/05/04 01:53:44;;;;;;;6.75;4.35;;;;;;;5.33;100.00;101523.13;6259133;28;20052;-96
2023/05/04 01:56:46;;;;;;;10.32;4.70;;;;;;;5.31;100.00;101524.09;6263219;28;20175;-96
2023/05/04 01:59:48;;;;;;;8.35;4.55;;;;;;;5.28;100.00;101519.91;6245497;28;20566;-96
2023/05/04 02:02:50;;;;;;;7.53;4.50;;;;;;;5.28;100.00;101525.06;6245120;28;20061;-96
2023/05/04 02:05:53;;;;;;;10.52;4.53;;;;;;;5.25;100.00;101522.63;6260816;28;20450;-96
2023/05/04 02:08:55;;;;;;;9.50;4.63;;;;;;;5.24;100.00;101527.81;6256008;28;20060;-96
2023/05/04 02:11:57;;;;;;;8.73;4.78;;;;;;;5.22;100.00;101519.31;6260593;28;20037;-96
2023/05/04 02:14:59;;;;;;;7.10;4.63;;;;;;;5.11;100.00;101519.75;6262612;28;20087;-96
2023/05/04 02:18:01;;;;;;;5.35;3.88;;;;;;;5.05;100.00;101514.88;6260850;28;20564;-96
2023/05/04 02:21:03;;;;;;;8.52;4.15;;;;;;;4.91;100.00;101510.28;6256984;28;20045;-96
2023/05/04 02:24:06;;;;;;;6.32;4.28;;;;;;;4.85;100.00;101520.81;6231732;28;20199;-96
2023/05/04 02:27:08;;;;;;;7.75;4.43;;;;;;;4.75;100.00;101523.72;6260504;28;20529;-96
2023/05/04 02:30:10;;;;;;;9.13;4.63;;;;;;;4.69;100.00;101526.50;6243551;28;20139;-96
2023/05/04 02:33:12;;;;;;;9.77;4.50;;;;;;;4.63;100.00;101528.50;6250496;28;20052;-96
2023/05/04 02:36:17;;;;;;;5.63;4.20;;;;;;;4.59;100.00;101524.34;6233707;28;20045;-96
2023/05/04 02:39:18;;;;;;;11.77;4.13;;;;;;;4.58;100.00;101532.97;6264125;28;20041;-96
2023/05/04 02:42:20;;;;;;;6.97;4.90;;;;;;;4.57;100.00;101538.97;6264064;28;20044;-96
2023/05/04 02:45:23;;;;;;;6.43;4.70;;;;;;;4.55;100.00;101528.78;6262966;28;20045;-96
2023/05/04 02:48:24;;;;;;;9.13;5.57;;;;;;;4.53;100.00;101526.25;6264573;28;20821;-96
2023/05/04 02:51:26;;;;;;;6.82;5.03;;;;;;;4.48;100.00;101522.22;6264178;28;20056;-96
2023/05/04 02:54:29;;;;;;;9.80;4.70;;;;;;;4.46;100.00;101526.56;6262245;28;20130;-96
2023/05/04 02:57:31;;;;;;;8.18;4.70;;;;;;;4.44;100.00;101524.03;6259283;28;20025;-96
2023/05/04 03:00:33;;;;;;;8.57;5.25;;;;;;;4.44;100.00;101520.66;6260042;28;20083;-96
2023/05/04 03:03:35;;;;;;;6.72;5.05;;;;;;;4.38;100.00;101511.47;6242320;28;20041;-96
2023/05/04 03:06:37;;;;;;;8.88;4.63;;;;;;;4.40;100.00;101508.84;6264654;28;20048;-96
2023/05/04 03:09:39;;;;;;;9.35;4.80;;;;;;;4.37;100.00;101509.78;6263881;28;20040;-96
2023/05/04 03:12:41;;;;;;;8.00;4.45;;;;;;;4.35;100.00;101515.84;6259744;28;20045;-96
2023/05/04 03:15:43;;;;;;;10.35;5.13;;;;;;;4.35;100.00;101509.03;6242960;28;20958;-96
2023/05/04 03:18:46;;;;;;;6.90;4.60;;;;;;;4.35;100.00;101505.59;6261303;28;20053;-96
2023/05/04 03:21:48;;;;;;;9.55;4.30;;;;;;;4.36;100.00;101505.56;6245021;28;20049;-96
2023/05/04 03:24:50;;;;;;;7.55;4.80;;;;;;;4.36;100.00;101499.59;6261763;28;20136;-96
2023/05/04 03:27:52;;;;;;;6.63;3.92;;;;;;;4.38;100.00;101506.34;6259030;28;20068;-96
2023/05/04 03:30:55;;;;;;;7.55;4.28;;;;;;;4.36;100.00;101504.72;6260655;28;20135;-96
2023/05/04 03:33:57;;;;;;;11.13;4.57;;;;;;;4.35;100.00;101498.78;6257945;28;20045;-96
2023/05/04 03:36:59;;;;;;;6.65;3.90;;;;;;;4.37;100.00;101502.09;6260916;28;20049;-96
2023/05/04 03:40:01;;;;;;;16.13;4.30;;;;;;;4.41;100.00;101501.09;6260972;28;20372;-96
2023/05/04 03:43:03;;;;;;;8.68;4.43;;;;;;;4.43;100.00;101506.16;6243700;28;20060;-96
2023/05/04 03:46:05;;;;;;;7.20;3.80;;;;;;;4.45;100.00;101492.41;6260603;28;20040;-96
2023/05/04 03:49:07;;;;;;;5.70;4.20;;;;;;;4.49;100.00;101496.50;6258115;28;20123;-96
2023/05/04 03:52:09;;;;;;;12.32;4.50;;;;;;;4.53;100.00;101487.81;6261440;28;20032;-96
2023/05/04 03:55:12;;;;;;;7.20;4.80;;;;;;;4.51;100.00;101483.63;6251865;28;20047;-96
2023/05/04 03:58:14;;;;;;;8.50;4.30;;;;;;;4.57;100.00;101485.13;6259589;28;20345;-96
2023/05/04 04:01:16;;;;;;;9.82;4.68;;;;;;;4.62;100.00;101480.66;6262706;28;20045;-96
2023/05/04 04:04:18;;;;;;;6.13;4.50;;;;;;;4.66;100.00;101487.34;6262412;28;20124;-96
2023/05/04 04:07:20;;;;;;;7.32;4.38;;;;;;;4.68;100.00;101483.81;6261135;28;20048;-96
2023/05/04 04:10:22;;;;;;;8.60;5.00;;;;;;;4.71;100.00;101485.44;6263020;28;20049;-96
2023/05/04 04:13:24;;;;;;;8.20;5.03;;;;;;;4.77;100.00;101476.66;6260985;28;20063;-96
2023/05/04 04:16:26;;;;;;;8.07;5.05;;;;;;;4.81;100.00;101480.78;6262972;28;20052;-96
2023/05/04 04:19:28;;;;;;;8.88;5.05;;;;;;;4.87;100.00;101478.81;6256674;28;20068;-95
2023/05/04 04:22:30;;;;;;;9.80;4.85;;;;;;;4.92;100.00;101479.47;6261400;28;20083;-95
2023/05/04 04:25:32;;;;;;;7.40;5.38;;;;;;;4.95;100.00;101476.75;6253755;28;20043;-96
2023/05/04 04:28:34;;;;;;;7.25;4.93;;;;;;;4.97;100.00;101474.16;6266653;28;20106;-96
2023/05/04 04:31:36;;;;;;;8.57;4.57;;;;;;;4.98;100.00;101470.66;6273684;28;20041;-96
2023/05/04 04:34:38;;;;;;;7.28;4.63;;;;;;;5.00;100.00;101468.06;6275420;28;20877;-96
2023/05/04 04:37:41;;;;;;;7.18;4.68;;;;;;;5.06;100.00;101472.94;6269066;28;20048;-96
2023/05/04 04:40:43;;;;;;;10.43;5.15;;;;;;;5.10;100.00;101471.91;6269057;28;20044;-96
2023/05/04 04:43:45;;;;;;;9.20;5.15;;;;;;;5.21;100.00;101474.03;6265470;28;20041;-96
2023/05/04 04:46:47;;;;;;;15.68;5.63;;;;;;;5.28;100.00;101471.16;6264676;28;20063;-96
2023/05/04 04:49:49;;;;;;;8.93;5.00;;;;;;;5.32;100.00;101472.69;6265937;28;20123;-95
2023/05/04 04:52:51;;;;;;;6.50;4.82;;;;;;;5.37;100.00;101475.06;6268662;28;20377;-96
2023/05/04 04:55:53;;;;;;;8.07;5.00;;;;;;;5.45;100.00;101474.75;6266957;28;20135;-96
2023/05/04 04:58:55;;;;;;;7.45;4.82;;;;;;;5.50;100.00;101472.81;6261708;28;20725;-95
2023/05/04 05:01:58;;;;;;;10.10;5.13;;;;;;;5.56;100.00;101472.53;6265075;28;20508;-95
2023/05/04 05:04:59;;;;;;;7.63;4.43;;;;;;;5.66;100.00;101473.00;6265421;28;20071;-96
2023/05/04 05:08:01;;;;;;;11.00;5.10;;;;;;;5.73;100.00;101471.81;6259709;28;20040;-95
2023/05/04 05:11:04;;;;;;;6.82;4.65;;;;;;;5.77;100.00;101466.50;6257717;28;20041;-95
2023/05/04 05:14:06;;;;;;;8.10;5.43;;;;;;;5.86;100.00;101465.25;6265243;28;20419;-95
2023/05/04 05:17:09;;;;;;;8.13;5.28;;;;;;;5.91;100.00;101465.03;6263240;28;20041;-96
2023/05/04 05:20:11;;;;;;;8.60;5.15;;;;;;;6.02;100.00;101465.44;6261321;28;20041;-95
2023/05/04 05:23:13;;;;;;;6.75;5.10;;;;;;;6.12;100.00;101461.56;6259556;28;20045;-96
2023/05/04 05:26:15;;;;;;;10.13;5.28;;;;;;;6.19;100.00;101465.50;6264912;28;20044;-96
2023/05/04 05:29:17;;;;;;;8.70;5.07;;;;;;;6.25;100.00;101456.69;6254886;28;20043;-95
2023/05/04 05:32:19;;;;;;;8.95;5.05;;;;;;;6.32;100.00;101463.22;6254278;28;20436;-95
2023/05/04 05:35:21;;;;;;;9.10;5.68;;;;;;;6.36;100.00;101459.59;6264649;28;20044;-95
2023/05/04 05:38:22;;;;;;;7.75;5.30;;;;;;;6.44;100.00;101467.78;6270439;28;20044;-95
2023/05/04 05:41:24;;;;;;;9.32;5.53;;;;;;;6.50;100.00;101461.53;6259823;28;20040;-96
2023/05/04 05:44:26;;;;;;;7.57;5.20;;;;;;;6.56;100.00;101466.38;6261471;28;20055;-94
2023/05/04 05:47:28;;;;;;;9.40;5.22;;;;;;;6.63;100.00;101459.19;6258824;28;20040;-96
2023/05/04 05:50:30;;;;;;;8.98;5.32;;;;;;;6.70;100.00;101458.00;6262745;28;20042;-95
2023/05/04 05:53:32;;;;;;;6.90;4.78;;;;;;;6.82;100.00;101456.59;6251606;28;20456;-96
2023/05/04 05:56:34;;;;;;;7.55;4.80;;;;;;;6.92;100.00;101462.13;6261728;28;20036;-96
2023/05/04 05:59:36;;;;;;;9.57;5.25;;;;;;;7.00;100.00;101458.25;6263041;28;20120;-95
2023/05/04 06:02:38;;;;;;;8.52;5.57;;;;;;;7.10;100.00;101469.78;6256380;28;20506;-95
2023/05/04 06:05:41;;;;;;;8.18;5.68;;;;;;;7.21;100.00;101458.97;6257454;28;20086;-95
2023/05/04 06:08:43;;;;;;;10.77;5.43;;;;;;;7.33;100.00;101462.66;6260505;28;20653;-94
2023/05/04 06:11:45;;;;;;;7.40;5.22;;;;;;;7.50;100.00;101454.06;6261010;28;20044;-95
2023/05/04 06:14:47;;;;;;;8.23;5.30;;;;;;;7.71;100.00;101455.53;6259782;28;20514;-95
2023/05/04 06:17:50;;;;;;;8.73;5.80;;;;;;;7.91;100.00;101456.25;6263005;28;20041;-95
2023/05/04 06:21:03;;;;;;;12.95;5.38;;;;;;;8.11;100.00;101453.44;6263430;28;20123;-96
2023/05/04 06:24:05;;;;;;;7.40;5.20;;;;;;;8.32;100.00;101458.34;6262100;28;20053;-96
2023/05/04 06:27:07;;;;;;;10.77;5.03;;;;;;;8.57;100.00;101455.28;6261807;28;20057;-96
2023/05/04 06:30:10;;;;;;;8.93;4.97;;;;;;;8.81;100.00;101453.06;6263121;28;20402;-96
2023/05/04 06:33:12;;;;;;;7.38;4.20;;;;;;;9.10;100.00;101455.75;6263136;28;20041;-96
2023/05/04 06:36:14;;;;;;;7.40;5.03;;;;;;;9.35;100.00;101455.16;6261447;28;20045;-95
2023/05/04 06:39:16;;;;;;;10.15;4.85;;;;;;;9.57;100.00;101460.72;6251990;28;20052;-95
2023/05/04 06:42:19;;;;;;;7.47;4.68;;;;;;;9.78;100.00;101473.25;6263425;28;20578;-95
2023/05/04 06:45:23;;;;;;;6.05;4.38;;;;;;;10.02;100.00;101468.38;6257749;28;20049;-95
2023/05/04 06:48:25;;;;;;;9.15;4.60;;;;;;;10.22;100.00;101470.53;6263747;28;20037;-96
2023/05/04 06:51:27;;;;;;;6.72;4.10;;;;;;;10.39;100.00;101466.09;6245388;28;20092;-96
2023/05/04 06:54:30;;;;;;;6.68;4.13;;;;;;;10.54;100.00;101465.13;6263602;28;20045;-96
2023/05/04 06:57:32;;;;;;;7.30;4.28;;;;;;;10.68;100.00;101474.59;6259879;28;20045;-95
2023/05/04 07:00:35;;;;;;;7.72;3.80;;;;;;;10.81;100.00;101459.94;6266967;28;20486;-95
2023/05/04 07:03:37;;;;;;;9.18;4.97;;;;;;;10.95;100.00;101462.44;6263130;28;20037;-95
2023/05/04 07:06:39;;;;;;;9.00;4.13;;;;;;;11.17;100.00;101466.22;6261378;28;20040;-95
2023/05/04 07:09:42;;;;;;;7.22;4.25;;;;;;;11.34;100.00;101460.72;6261299;28;20079;-95
2023/05/04 07:12:44;;;;;;;6.38;3.80;;;;;;;11.56;100.00;101457.53;6262827;28;20044;-96
2023/05/04 07:15:46;;;;;;;8.32;4.00;;;;;;;11.78;100.00;101466.44;6259480;28;20040;-94
2023/05/04 07:18:48;;;;;;;10.15;4.07;;;;;;;11.97;100.00;101464.22;6262432;28;20171;-96
2023/05/04 07:21:50;;;;;;;6.75;3.90;;;;;;;12.15;100.00;101462.13;6258595;28;20180;-95
2023/05/04 07:24:52;;;;;;;8.60;3.78;;;;;;;12.34;100.00;101455.63;6261793;28;20045;-95
2023/05/04 07:27:54;;;;;;;7.68;4.47;;;;;;;12.49;100.00;101451.91;6259677;28;20074;-96
2023/05/04 07:30:57;;;;;;;8.63;4.32;;;;;;;12.64;100.00;101449.97;6244797;28;20531;-96
2023/05/04 07:33:58;;;;;;;7.93;3.63;;;;;;;12.74;100.00;101444.94;6261333;28;20049;-95
2023/05/04 07:37:03;;;;;;;8.77;3.70;;;;;;;12.84;100.00;101451.13;6261438;28;20467;-96
2023/05/04 07:40:06;;;;;;;7.57;3.40;;;;;;;12.97;100.00;101446.69;6238404;28;20049;-96
2023/05/04 07:43:08;;;;;;;8.05;3.88;;;;;;;13.10;100.00;101449.19;6258980;28;20044;-96
2023/05/04 07:46:11;;;;;;;8.45;3.20;;;;;;;13.20;100.00;101449.34;6262183;28;20048;-95
2023/05/04 07:49:13;;;;;;;6.40;3.60;;;;;;;13.26;100.00;101454.06;6262359;28;20033;-96
2023/05/04 07:52:15;;;;;;;8.93;3.63;;;;;;;13.35;100.00;101450.81;6260080;28;20498;-95
2023/05/04 07:55:17;;;;;;;7.13;3.53;;;;;;;13.47;100.00;101444.69;6261724;28;20087;-96
2023/05/04 07:58:20;;;;;;;4.78;3.55;;;;;;;13.53;100.00;101443.38;6261349;28;20811;-96
2023/05/04 08:01:21;;;;;;;7.13;3.72;;;;;;;13.65;100.00;101447.63;6257787;28;20049;-95
2023/05/04 08:04:23;;;;;;;14.38;3.80;;;;;;;13.73;100.00;101449.63;6259882;28;20045;-96
2023/05/04 08:07:25;;;;;;;8.20;3.50;;;;;;;13.80;100.00;101443.00;6260405;28;20049;-96
2023/05/04 08:10:28;;;;;;;9.60;3.83;;;;;;;13.88;100.00;101448.44;6257533;28;20052;-95
2023/05/04 08:13:30;;;;;;;9.35;4.28;;;;;;;13.98;100.00;101444.16;6260696;28;20144;-96
2023/05/04 08:16:32;;;;;;;7.68;3.83;;;;;;;14.12;100.00;101442.25;6238315;28;20049;-96
2023/05/04 08:19:34;;;;;;;8.73;4.15;;;;;;;14.17;100.00;101430.53;6261219;28;20045;-96
2023/05/04 08:22:36;;;;;;;9.23;4.57;;;;;;;14.28;100.00;101426.22;6260463;28;20037;-96
2023/05/04 08:25:38;;;;;;;7.38;4.00;;;;;;;14.43;100.00;101425.84;6261734;28;20242;-96
2023/05/04 08:28:40;;;;;;;6.55;4.15;;;;;;;14.58;100.00;101426.41;6258881;28;20126;-95
2023/05/04 08:31:42;;;;;;;7.18;3.90;;;;;;;14.72;100.00;101414.03;6253821;28;20045;-96
2023/05/04 08:34:44;;;;;;;8.25;4.35;;;;;;;14.86;100.00;101404.09;6260001;28;20051;-96
2023/05/04 08:37:46;;;;;;;8.35;4.38;;;;;;;15.07;100.00;101403.25;6261182;28;20040;-95
2023/05/04 08:40:48;;;;;;;9.50;4.70;;;;;;;15.14;100.00;101399.19;6260660;28;20052;-95
2023/05/04 08:43:51;;;;;;;4.80;3.88;;;;;;;15.22;100.00;101401.13;6253162;28;20407;-96
2023/05/04 08:46:55;;;;;;;9.57;4.07;;;;;;;15.39;100.00;101394.50;6263161;28;20110;-96
2023/05/04 08:49:57;;;;;;;6.68;3.92;;;;;;;15.51;100.00;101391.66;6262004;28;20522;-95
2023/05/04 08:53:02;;;;;;;7.20;3.88;;;;;;;15.61;100.00;101389.09;6262617;28;20096;-96
2023/05/04 08:56:13;;;;;;;8.10;4.05;;;;;;;15.63;100.00;101381.94;6260031;28;20821;-95
2023/05/04 08:59:20;;;;;;;5.13;3.88;;;;;;;15.73;100.00;101378.59;6249523;28;20174;-95
2023/05/04 09:02:23;;;;;;;7.00;4.13;;;;;;;15.80;100.00;101377.91;6252616;28;20881;-94
2023/05/04 09:05:26;;;;;;;8.75;3.85;;;;;;;15.83;100.00;101368.97;6258698;28;20116;-94
2023/05/04 09:08:28;;;;;;;6.85;4.07;;;;;;;15.86;100.00;101373.94;6259259;28;20053;-95
2023/05/04 09:11:30;;;;;;;9.13;3.97;;;;;;;15.90;100.00;101368.31;6259358;28;20554;-94
2023/05/04 09:14:35;;;;;;;7.03;3.95;;;;;;;15.86;100.00;101379.16;6255320;28;20056;-94
2023/05/04 09:17:36;;;;;;;6.25;3.55;;;;;;;15.88;100.00;101375.44;6260156;28;20126;-95
2023/05/04 09:20:57;;;;;;;6.95;3.63;;;;;;;16.00;100.00;101373.53;6252184;28;20037;-95
2023/05/04 09:23:59;;;;;;;6.53;3.65;;;;;;;16.13;100.00;101368.06;6262998;28;20068;-95
2023/05/04 09:27:16;;;;;;;7.15;3.53;;;;;;;16.11;100.00;101375.19;6255588;28;20754;-95
2023/05/04 09:30:20;;;;;;;8.65;3.78;;;;;;;16.22;100.00;101361.16;6272227;28;20072;-95
2023/05/04 09:33:28;;;;;;;7.43;4.28;;;;;;;16.37;100.00;101372.84;6262807;28;20045;-94
2023/05/04 09:36:30;;;;;;;7.53;4.05;;;;;;;16.52;100.00;101366.25;6263832;28;20063;-94
2023/05/04 09:39:32;;;;;;;6.72;4.25;;;;;;;16.58;100.00;101370.91;6262983;28;20477;-95
2023/05/04 09:42:34;;;;;;;8.18;3.88;;;;;;;16.58;100.00;101364.88;6267502;28;20105;-93
2023/05/04 09:45:47;;;;;;;7.47;3.72;;;;;;;16.57;100.00;101365.81;6256812;28;20037;-95
2023/05/04 09:48:55;;;;;;;5.93;3.97;;;;;;;16.66;100.00;101364.97;6261922;28;20045;-95
2023/05/04 09:52:01;;;;;;;5.78;4.25;;;;;;;16.76;100.00;101357.94;6260945;28;20530;-95
2023/05/04 09:55:04;;;;;;;9.40;4.50;;;;;;;16.69;100.00;101353.41;6258222;28;20460;-95
2023/05/04 09:58:07;;;;;;;9.45;4.00;;;;;;;16.66;100.00;101345.88;6265943;28;20045;-95
2023/05/04 10:01:10;;;;;;;7.50;4.13;;;;;;;16.70;100.00;101348.06;6262553;28;20053;-94
2023/05/04 10:04:12;;;;;;;7.40;3.75;;;;;;;16.74;100.00;101340.75;6259510;28;20068;-95
2023/05/04 10:07:15;;;;;;;8.00;4.00;;;;;;;16.84;100.00;101346.00;6259815;28;20124;-94
2023/05/04 10:10:17;;;;;;;7.07;3.25;;;;;;;17.03;100.00;101339.88;6259848;28;20115;-95
2023/05/04 10:13:19;;;;;;;6.18;3.95;;;;;;;17.15;100.00;101330.88;6261089;28;20130;-95
2023/05/04 10:16:24;;;;;;;7.88;4.07;;;;;;;17.27;100.00;101331.53;6252372;28;20045;-94
2023/05/04 10:20:18;;;;;;;7.18;3.92;;;;;;;17.43;100.00;101327.28;6260925;28;20167;-95
2023/05/04 10:23:47;;;;;;;6.65;3.50;;;;;;;17.55;100.00;101334.97;6165372;28;20524;-95
2023/05/04 10:27:11;;;;;;;6.20;4.43;;;;;;;17.39;100.00;101327.72;6185038;28;20485;-94
2023/05/04 10:30:17;;;;;;;6.13;3.97;;;;;;;17.39;100.00;101325.94;6187308;28;20125;-95
2023/05/04 10:33:19;;;;;;;7.03;4.07;;;;;;;17.39;100.00;101318.09;6185775;28;20066;-95
2023/05/04 10:36:21;;;;;;;4.53;3.60;;;;;;;17.40;100.00;101317.13;6168725;28;20081;-94
2023/05/04 10:39:25;;;;;;;4.57;3.50;;;;;;;17.45;100.00;101311.44;6183152;28;20055;-95
2023/05/04 10:42:27;;;;;;;7.97;4.03;;;;;;;17.51;100.00;101316.09;6186358;28;20038;-95
2023/05/04 10:45:40;;;;;;;7.90;3.90;;;;;;;17.60;100.00;101317.00;6183749;28;20061;-95
2023/05/04 10:48:42;;;;;;;6.65;3.97;;;;;;;17.63;100.00;101316.72;6152683;28;20046;-95
2023/05/04 10:51:45;;;;;;;6.80;3.53;;;;;;;17.71;100.00;101306.31;6185023;28;20097;-94
2023/05/04 10:54:58;;;;;;;7.88;3.80;;;;;;;17.78;100.00;101302.13;6184544;28;20062;-95
2023/05/04 10:58:00;;;;;;;6.30;4.10;;;;;;;18.00;99.27;101286.97;6205743;28;20136;-95
2023/05/04 11:01:11;;;;;;;8.27;4.18;;;;;;;18.23;100.00;101280.25;6260147;28;20048;-95
2023/05/04 11:04:21;;;;;;;8.38;3.78;;;;;;;18.38;95.66;101285.78;6261657;28;20733;-95
2023/05/04 11:07:38;;;;;;;6.32;3.97;;;;;;;18.54;94.13;101277.22;6261235;28;20602;-96
2023/05/04 11:10:40;;;;;;;5.68;3.63;;;;;;;18.66;93.47;101262.03;6261943;28;20458;-95
2023/05/04 11:13:45;;;;;;;5.35;3.53;;;;;;;18.72;97.78;101267.47;6261545;28;20048;-94
2023/05/04 11:16:47;;;;;;;9.35;4.53;;;;;;;18.79;95.70;101261.63;6261385;28;20099;-95
2023/05/04 11:19:51;;;;;;;7.43;3.63;;;;;;;18.86;89.92;101260.84;6257711;28;20034;-89
2023/05/04 11:22:53;;;;;;;7.65;3.38;;;;;;;19.01;94.79;101260.25;6257575;28;20048;-90
2023/05/04 11:25:55;;;;;;;6.20;3.45;;;;;;;19.10;93.20;101254.03;6261652;28;20490;-90
2023/05/04 11:28:57;;;;;;;7.05;3.58;;;;;;;19.08;95.64;101238.47;6260993;28;20037;-90
2023/05/04 11:31:59;;;;;;;5.40;3.63;;;;;;;18.95;91.53;101235.44;6262063;28;20052;-90
2023/05/04 11:35:02;;;;;;;4.88;3.47;;;;;;;19.00;87.08;101235.78;6250670;28;20110;-90
2023/05/04 11:38:06;;;;;;;4.90;3.40;;;;;;;19.04;87.23;101229.25;6261251;28;20055;-89
2023/05/04 11:41:09;;;;;;;8.13;3.47;;;;;;;19.03;86.41;101229.41;6258933;28;20065;-90
2023/05/04 11:44:11;;;;;;;5.72;3.42;;;;;;;19.11;90.99;101218.97;6261323;28;20568;-89
2023/05/04 11:47:13;;;;;;;8.40;3.50;;;;;;;19.22;92.39;101215.19;6242274;28;20049;-90
2023/05/04 11:50:19;;;;;;;8.27;3.75;;;;;;;19.29;84.15;101216.19;6260798;28;20082;-90
2023/05/04 11:53:22;;;;;;;6.78;3.80;;;;;;;19.30;87.13;101207.34;6255721;28;20103;-90
2023/05/04 11:56:23;;;;;;;5.80;2.90;;;;;;;19.18;86.34;101204.22;6260882;28;20089;-90
2023/05/04 11:59:25;;;;;;;6.65;3.40;;;;;;;19.30;85.01;101202.94;6260257;28;20131;-89
2023/05/04 12:02:27;;;;;;;5.93;3.20;;;;;;;19.38;89.26;101196.88;6261035;28;20175;-90
2023/05/04 12:05:30;;;;;;;8.40;3.38;;;;;;;19.57;88.64;101203.59;6259579;28;20045;-90
2023/05/04 12:08:40;;;;;;;5.82;3.35;;;;;;;19.67;88.44;101185.03;6250017;28;20567;-89
2023/05/04 12:11:54;;;;;;;10.90;3.95;;;;;;;19.72;80.02;101193.28;6258638;28;20566;-90
2023/05/04 12:14:56;;;;;;;6.00;4.00;;;;;;;19.69;86.24;101183.13;6258456;28;20044;-90
2023/05/04 12:17:59;;;;;;;6.82;3.60;;;;;;;19.71;83.32;101189.84;6260000;28;20170;-89
2023/05/04 12:21:09;;;;;;;5.43;3.38;;;;;;;19.77;92.27;101186.53;6258273;28;20052;-90
2023/05/04 12:24:11;;;;;;;5.72;3.28;;;;;;;19.95;84.76;101185.53;6260051;28;20733;-90
2023/05/04 12:27:13;;;;;;;6.10;3.05;;;;;;;20.17;84.06;101179.59;6260319;28;20051;-90
2023/05/04 12:30:16;;;;;;;5.63;3.50;;;;;;;20.38;81.73;101181.69;6258097;28;20040;-91
2023/05/04 12:33:18;;;;;;;7.93;3.25;;;;;;;20.44;77.83;101180.16;6259874;28;20140;-91
2023/05/04 12:36:20;;;;;;;5.75;2.80;;;;;;;20.65;78.36;101172.56;6257901;28;20082;-90
2023/05/04 12:39:22;;;;;;;5.00;3.22;;;;;;;20.78;79.05;101174.63;6255054;28;20398;-91
2023/05/04 12:42:25;;;;;;;7.38;2.97;;;;;;;20.74;71.04;101168.06;6255426;28;20045;-91
2023/05/04 12:45:27;;;;;;;5.72;2.80;;;;;;;20.84;80.04;101168.69;6259821;28;20194;-91
2023/05/04 12:48:31;;;;;;;7.25;2.85;;;;;;;21.03;72.99;101175.31;6258246;28;20179;-91
2023/05/04 12:51:34;;;;;;;6.65;2.70;;;;;;;21.14;74.84;101166.22;6260198;28;20055;-91
2023/05/04 12:54:36;;;;;;;4.00;2.47;;;;;;;21.20;73.19;101162.06;6252768;28;20083;-91
2023/05/04 12:57:43;;;;;;;5.13;2.58;;;;;;;21.30;75.08;101160.00;6246611;28;20058;-91
2023/05/04 13:00:45;;;;;;;6.88;2.72;;;;;;;21.35;71.72;101156.84;6257438;28;20137;-91
2023/05/04 13:03:48;;;;;;;3.92;2.75;;;;;;;21.39;71.30;101152.88;6261619;28;20044;-91
2023/05/04 13:06:50;;;;;;;7.45;3.03;;;;;;;21.55;74.04;101151.94;6262260;28;20036;-91
2023/05/04 13:09:53;;;;;;;4.03;2.75;;;;;;;21.79;70.38;101145.59;6263810;28;20075;-91
2023/05/04 13:12:55;;;;;;;6.88;3.13;;;;;;;22.07;66.66;101141.38;6262555;28;20048;-92
2023/05/04 13:15:57;;;;;;;7.40;2.75;;;;;;;22.33;65.89;101140.09;6257666;28;20037;-91
2023/05/04 13:18:59;;;;;;;6.03;2.70;;;;;;;22.43;63.50;101135.38;6262067;28;20406;-92
2023/05/04 13:22:01;;;;;;;6.80;2.60;;;;;;;22.32;61.58;101130.56;6259350;28;20061;-92
2023/05/04 13:25:04;;;;;;;3.60;2.72;;;;;;;22.32;66.43;101122.66;6264154;28;20053;-92
2023/05/04 13:28:06;;;;;;;5.38;2.72;;;;;;;22.38;61.69;101124.53;6263393;28;20101;-92
2023/05/04 13:31:08;;;;;;;4.82;2.80;;;;;;;22.25;62.12;101113.84;6261701;28;20035;-92
2023/05/04 13:34:10;;;;;;;3.95;2.60;;;;;;;22.14;60.37;101113.28;6264282;28;20107;-92
2023/05/04 13:37:17;;;;;;;5.93;2.75;;;;;;;22.21;62.49;101104.66;6263551;28;20499;-92
2023/05/04 13:40:19;;;;;;;6.57;2.72;;;;;;;22.21;61.17;101102.84;6263983;28;20072;-92
2023/05/04 13:43:21;;;;;;;4.47;2.78;;;;;;;22.22;59.99;101095.75;6263172;28;20406;-92
2023/05/04 13:46:25;;;;;;;6.13;3.03;;;;;;;22.24;57.21;101099.84;6262505;28;20102;-91
2023/05/04 13:49:29;;;;;;;4.07;2.85;;;;;;;22.34;62.20;101084.53;6263530;28;20056;-91
2023/05/04 13:52:31;;;;;;;6.40;2.83;;;;;;;22.45;59.28;101079.78;6256495;28;20041;-92
2023/05/04 13:55:33;;;;;;;5.28;3.10;;;;;;;22.73;59.44;101074.59;6261681;28;20391;-92
2023/05/04 13:58:36;;;;;;;8.90;3.20;;;;;;;22.93;54.91;101072.16;6259350;28;20064;-92
2023/05/04 14:01:38;;;;;;;8.07;3.00;;;;;;;23.00;56.21;101067.78;6257217;28;20045;-92
2023/05/04 14:04:42;;;;;;;3.65;2.55;;;;;;;23.36;56.01;101062.41;6262677;28;20041;-92
2023/05/04 14:07:45;;;;;;;5.20;2.70;;;;;;;23.46;52.93;101055.97;6260470;28;20107;-92